Nichinan — ZL6DEF1 — position and weather

sailwx.info

Track history (hours):
 
Tides and Currents Weather Stations Pressure Air Temp Water Temp Dewpoint Dewpoint Depression Visibility Wind Speed Wind Dir Waves Ship Positions

Nichinan

Last reported at 2018-Apr-19 08:07 UTC. Time now 2018-Apr-24 14:28 UTC.
Position N 34°39' E 139°31'.

MMSI: 431999636.

Date/timePositionNaut miles runAvg speedWind from/ knotsBaromVisibWave heightAir tempDewpointWater temp
2018-Apr-19 08:07N 34°39' E 139°31'414.5
2018-Apr-19 07:52N 34°42' E 139°32'613.8
2018-Apr-19 07:27N 34°48' E 139°34'814.3
2018-Apr-19 06:55N 34°56' E 139°33'513.5
2018-Apr-19 06:31N 35°01' E 139°32'713.4
2018-Apr-19 06:00N 35°07' E 139°29'3 5.2
2018-Apr-19 05:29N 35°10' E 139°30'1 2.1
2018-Apr-19 05:00N 35°09' E 139°31'2 4.9
2018-Apr-19 04:30N 35°09' E 139°34'1 1.4
2018-Apr-19 04:00N 35°08' E 139°34'0 0.1
2018-Apr-19 03:29N 35°08' E 139°34'0 0.5
2018-Apr-19 03:01N 35°08' E 139°34'0 0.4
2018-Apr-19 02:31N 35°08' E 139°34'0 0.4
2018-Apr-19 02:01N 35°08' E 139°34'2 3.6
2018-Apr-19 01:30N 35°10' E 139°33'2 3.7
2018-Apr-19 01:00N 35°08' E 139°34'612.7
2018-Apr-19 00:31N 35°06' E 139°42'713.0
2018-Apr-19 00:00N 35°12' E 139°46'612.5
2018-Apr-18 23:30N 35°18' E 139°44'4 8.6
2018-Apr-18 23:01N 35°18' E 139°39'0 1.0
2018-Apr-18 22:31N 35°18' E 139°38'0 0.0
2018-Apr-18 22:00N 35°18' E 139°38'0 0.0
2018-Apr-18 21:31N 35°18' E 139°38'0 0.0
2018-Apr-18 21:00N 35°18' E 139°38'0 0.0
2018-Apr-17 00:19N 35°18' E 139°38'0 0.3
2018-Apr-17 00:00N 35°18' E 139°38'1 2.6
2018-Apr-16 23:30N 35°19' E 139°40'1 2.0
2018-Apr-16 23:00N 35°18' E 139°39'0 0.7
2018-Apr-16 22:31N 35°18' E 139°38'0 0.0
2018-Apr-16 22:00N 35°18' E 139°38'0 0.0
2018-Apr-16 21:30N 35°18' E 139°38'0 0.0
2018-Apr-16 20:59N 35°18' E 139°38'  
2018-Apr-13 08:22N 35°18' E 139°38'0 0.6
2018-Apr-13 08:01N 35°18' E 139°39'3 5.8
2018-Apr-13 07:30N 35°19' E 139°42'510.6
2018-Apr-13 07:01N 35°15' E 139°47'713.0
2018-Apr-13 06:30N 35°09' E 139°46'713.9
2018-Apr-13 06:00N 35°02' E 139°43'612.0
2018-Apr-13 05:30N 34°56' E 139°42'811.4
2018-Apr-13 04:48N 34°48' E 139°42'2 0.9
2018-Apr-13 02:42N 34°46' E 139°41'814.2
2018-Apr-13 02:09N 34°54' E 139°39'214.2
2018-Apr-13 02:00N 34°56' E 139°39'713.2
2018-Apr-13 01:30N 35°03' E 139°41'612.6
2018-Apr-13 01:00N 35°08' E 139°45'612.5
2018-Apr-13 00:31N 35°14' E 139°46'611.3
2018-Apr-13 00:00N 35°19' E 139°42'3 5.0
2018-Apr-12 23:31N 35°18' E 139°39'0 1.0
2018-Apr-12 23:01N 35°17' E 139°39'0 0.0
2018-Apr-12 22:30N 35°17' E 139°39'0 0.0
2018-Apr-12 22:00N 35°17' E 139°39'0 0.0
2018-Apr-12 21:29N 35°17' E 139°39'0 0.0
2018-Apr-12 21:00N 35°17' E 139°39'0 0.0
2018-Apr-11 22:43N 35°17' E 139°39'0 0.0
2018-Apr-11 22:30N 35°17' E 139°39'0 0.0
2018-Apr-11 22:00N 35°17' E 139°39'0 0.0
2018-Apr-11 21:30N 35°17' E 139°39'0 0.0
2018-Apr-11 21:00N 35°17' E 139°39'0 0.0
2018-Apr-11 20:30N 35°17' E 139°39'0 0.0
2018-Apr-11 20:01N 35°17' E 139°39'0 0.0
2018-Apr-11 19:30N 35°17' E 139°39'0 0.0
2018-Apr-11 19:00N 35°17' E 139°39'0 0.0
2018-Apr-11 18:30N 35°17' E 139°39'0 0.0
2018-Apr-11 18:00N 35°17' E 139°39'0 0.0
2018-Apr-11 17:30N 35°17' E 139°39'0 0.0
2018-Apr-11 17:00N 35°17' E 139°39'0 0.0
2018-Apr-11 16:31N 35°17' E 139°39'0 0.0
2018-Apr-11 16:00N 35°17' E 139°39'0 0.0
2018-Apr-11 15:30N 35°17' E 139°39'0 0.0
2018-Apr-11 15:00N 35°17' E 139°39'0 0.0
2018-Apr-11 14:30N 35°17' E 139°39'0 0.0
2018-Apr-11 14:00N 35°17' E 139°39'0 0.0
2018-Apr-11 13:30N 35°17' E 139°39'0 0.0
2018-Apr-11 13:00N 35°17' E 139°39'0 0.0
2018-Apr-11 12:30N 35°17' E 139°39'0 0.0
2018-Apr-11 12:00N 35°17' E 139°39'0 0.0
2018-Apr-11 11:30N 35°17' E 139°39'0 0.0
2018-Apr-11 11:00N 35°17' E 139°39'0 0.0
2018-Apr-11 10:30N 35°17' E 139°39'0 0.0
2018-Apr-11 10:00N 35°17' E 139°39'0 0.0
2018-Apr-11 09:30N 35°17' E 139°39'0 0.0
2018-Apr-11 09:00N 35°17' E 139°39'0 0.0
2018-Apr-11 08:30N 35°17' E 139°39'0 0.0
2018-Apr-11 08:00N 35°17' E 139°39'0 0.0
2018-Apr-11 07:30N 35°17' E 139°39'0 0.0
2018-Apr-11 07:00N 35°17' E 139°39'0 0.0
2018-Apr-11 06:30N 35°17' E 139°39'0 0.0
2018-Apr-11 06:00N 35°17' E 139°39'0 0.0
2018-Apr-11 05:30N 35°17' E 139°39'0 0.0
2018-Apr-11 05:00N 35°17' E 139°39'0 0.0
2018-Apr-11 04:30N 35°17' E 139°39'0 0.0
2018-Apr-11 04:01N 35°17' E 139°39'0 0.0
2018-Apr-10 23:47N 35°17' E 139°39'0 0.1
2018-Apr-10 23:30N 35°17' E 139°39'1 2.1
2018-Apr-10 23:00N 35°18' E 139°40'1 2.0
2018-Apr-10 22:30N 35°19' E 139°41'3 5.0
2018-Apr-10 22:00N 35°19' E 139°44'511.0
2018-Apr-10 21:30N 35°14' E 139°47'713.0
2018-Apr-10 21:00N 35°07' E 139°47'612.3
2018-Apr-10 20:30N 35°01' E 139°46'1 2.4
2018-Apr-10 20:00N 35°01' E 139°47'0 0.4
2018-Apr-10 19:30N 35°01' E 139°48'1 1.4
2018-Apr-10 19:00N 35°01' E 139°48'0 0.1
2018-Apr-10 18:30N 35°01' E 139°48'0 0.4
2018-Apr-10 17:59N 35°01' E 139°48'0 0.9
2018-Apr-10 17:30N 35°01' E 139°48'0 0.2
2018-Apr-10 17:00N 35°01' E 139°48'0 0.2
2018-Apr-10 16:30N 35°01' E 139°48'0 0.4
2018-Apr-10 16:00N 35°01' E 139°47'0 0.3
2018-Apr-10 15:30N 35°00' E 139°47'0 0.4
2018-Apr-10 15:00N 35°00' E 139°47'1 0.6
2018-Apr-10 14:03N 35°01' E 139°48'0 1.1
2018-Apr-10 14:00N 35°01' E 139°48'0 0.7
2018-Apr-10 13:30N 35°00' E 139°48'1 2.2
2018-Apr-10 13:00N 35°01' E 139°48'0 0.9
2018-Apr-10 12:30N 35°01' E 139°48'0 0.7
2018-Apr-10 12:00N 35°01' E 139°48'0 0.5
2018-Apr-10 11:30N 35°00' E 139°48'1 2.0
2018-Apr-10 11:00N 35°01' E 139°48'0 0.6
2018-Apr-10 10:30N 35°01' E 139°48'1 1.9
2018-Apr-10 10:00N 35°01' E 139°47'3 5.2
2018-Apr-10 09:29N 34°60' E 139°44'1010.2
2018-Apr-10 08:29N 34°50' E 139°41'814.5
2018-Apr-10 07:55N 34°42' E 139°41'  
Track history (hours):
 
Tides and Currents Weather Stations Pressure Air Temp Water Temp Dewpoint Dewpoint Depression Visibility Wind Speed Wind Dir Waves Ship Positions

Nichinan

Last reported at 2018-Apr-19 08:07 UTC. Time now 2018-Apr-24 14:28 UTC.
Position N 34°39' E 139°31'.

MMSI: 431999636.

Date/timePositionNaut miles runAvg speedWind from/ knotsBaromVisibWave heightAir tempDewpointWater temp
2018-Apr-19 08:07N 34°39' E 139°31'414.5
2018-Apr-19 07:52N 34°42' E 139°32'613.8
2018-Apr-19 07:27N 34°48' E 139°34'814.3
2018-Apr-19 06:55N 34°56' E 139°33'513.5
2018-Apr-19 06:31N 35°01' E 139°32'713.4
2018-Apr-19 06:00N 35°07' E 139°29'3 5.2
2018-Apr-19 05:29N 35°10' E 139°30'1 2.1
2018-Apr-19 05:00N 35°09' E 139°31'2 4.9
2018-Apr-19 04:30N 35°09' E 139°34'1 1.4
2018-Apr-19 04:00N 35°08' E 139°34'0 0.1
2018-Apr-19 03:29N 35°08' E 139°34'0 0.5
2018-Apr-19 03:01N 35°08' E 139°34'0 0.4
2018-Apr-19 02:31N 35°08' E 139°34'0 0.4
2018-Apr-19 02:01N 35°08' E 139°34'2 3.6
2018-Apr-19 01:30N 35°10' E 139°33'2 3.7
2018-Apr-19 01:00N 35°08' E 139°34'612.7
2018-Apr-19 00:31N 35°06' E 139°42'713.0
2018-Apr-19 00:00N 35°12' E 139°46'612.5
2018-Apr-18 23:30N 35°18' E 139°44'4 8.6
2018-Apr-18 23:01N 35°18' E 139°39'0 1.0
2018-Apr-18 22:31N 35°18' E 139°38'0 0.0
2018-Apr-18 22:00N 35°18' E 139°38'0 0.0
2018-Apr-18 21:31N 35°18' E 139°38'0 0.0
2018-Apr-18 21:00N 35°18' E 139°38'0 0.0
2018-Apr-17 00:19N 35°18' E 139°38'0 0.3
2018-Apr-17 00:00N 35°18' E 139°38'1 2.6
2018-Apr-16 23:30N 35°19' E 139°40'1 2.0
2018-Apr-16 23:00N 35°18' E 139°39'0 0.7
2018-Apr-16 22:31N 35°18' E 139°38'0 0.0
2018-Apr-16 22:00N 35°18' E 139°38'0 0.0
2018-Apr-16 21:30N 35°18' E 139°38'0 0.0
2018-Apr-16 20:59N 35°18' E 139°38'  
2018-Apr-13 08:22N 35°18' E 139°38'0 0.6
2018-Apr-13 08:01N 35°18' E 139°39'3 5.8
2018-Apr-13 07:30N 35°19' E 139°42'510.6
2018-Apr-13 07:01N 35°15' E 139°47'713.0
2018-Apr-13 06:30N 35°09' E 139°46'713.9
2018-Apr-13 06:00N 35°02' E 139°43'612.0
2018-Apr-13 05:30N 34°56' E 139°42'811.4
2018-Apr-13 04:48N 34°48' E 139°42'2 0.9
2018-Apr-13 02:42N 34°46' E 139°41'814.2
2018-Apr-13 02:09N 34°54' E 139°39'214.2
2018-Apr-13 02:00N 34°56' E 139°39'713.2
2018-Apr-13 01:30N 35°03' E 139°41'612.6
2018-Apr-13 01:00N 35°08' E 139°45'612.5
2018-Apr-13 00:31N 35°14' E 139°46'611.3
2018-Apr-13 00:00N 35°19' E 139°42'3 5.0
2018-Apr-12 23:31N 35°18' E 139°39'0 1.0
2018-Apr-12 23:01N 35°17' E 139°39'0 0.0
2018-Apr-12 22:30N 35°17' E 139°39'0 0.0
2018-Apr-12 22:00N 35°17' E 139°39'0 0.0
2018-Apr-12 21:29N 35°17' E 139°39'0 0.0
2018-Apr-12 21:00N 35°17' E 139°39'0 0.0
2018-Apr-11 22:43N 35°17' E 139°39'0 0.0
2018-Apr-11 22:30N 35°17' E 139°39'0 0.0
2018-Apr-11 22:00N 35°17' E 139°39'0 0.0
2018-Apr-11 21:30N 35°17' E 139°39'0 0.0
2018-Apr-11 21:00N 35°17' E 139°39'0 0.0
2018-Apr-11 20:30N 35°17' E 139°39'0 0.0
2018-Apr-11 20:01N 35°17' E 139°39'0 0.0
2018-Apr-11 19:30N 35°17' E 139°39'0 0.0
2018-Apr-11 19:00N 35°17' E 139°39'0 0.0
2018-Apr-11 18:30N 35°17' E 139°39'0 0.0
2018-Apr-11 18:00N 35°17' E 139°39'0 0.0
2018-Apr-11 17:30N 35°17' E 139°39'0 0.0
2018-Apr-11 17:00N 35°17' E 139°39'0 0.0
2018-Apr-11 16:31N 35°17' E 139°39'0 0.0
2018-Apr-11 16:00N 35°17' E 139°39'0 0.0
2018-Apr-11 15:30N 35°17' E 139°39'0 0.0
2018-Apr-11 15:00N 35°17' E 139°39'0 0.0
2018-Apr-11 14:30N 35°17' E 139°39'0 0.0
2018-Apr-11 14:00N 35°17' E 139°39'0 0.0
2018-Apr-11 13:30N 35°17' E 139°39'0 0.0
2018-Apr-11 13:00N 35°17' E 139°39'0 0.0
2018-Apr-11 12:30N 35°17' E 139°39'0 0.0
2018-Apr-11 12:00N 35°17' E 139°39'0 0.0
2018-Apr-11 11:30N 35°17' E 139°39'0 0.0
2018-Apr-11 11:00N 35°17' E 139°39'0 0.0
2018-Apr-11 10:30N 35°17' E 139°39'0 0.0
2018-Apr-11 10:00N 35°17' E 139°39'0 0.0
2018-Apr-11 09:30N 35°17' E 139°39'0 0.0
2018-Apr-11 09:00N 35°17' E 139°39'0 0.0
2018-Apr-11 08:30N 35°17' E 139°39'0 0.0
2018-Apr-11 08:00N 35°17' E 139°39'0 0.0
2018-Apr-11 07:30N 35°17' E 139°39'0 0.0
2018-Apr-11 07:00N 35°17' E 139°39'0 0.0
2018-Apr-11 06:30N 35°17' E 139°39'0 0.0
2018-Apr-11 06:00N 35°17' E 139°39'0 0.0
2018-Apr-11 05:30N 35°17' E 139°39'0 0.0
2018-Apr-11 05:00N 35°17' E 139°39'0 0.0
2018-Apr-11 04:30N 35°17' E 139°39'0 0.0
2018-Apr-11 04:01N 35°17' E 139°39'0 0.0
2018-Apr-10 23:47N 35°17' E 139°39'0 0.1
2018-Apr-10 23:30N 35°17' E 139°39'1 2.1
2018-Apr-10 23:00N 35°18' E 139°40'1 2.0
2018-Apr-10 22:30N 35°19' E 139°41'3 5.0
2018-Apr-10 22:00N 35°19' E 139°44'511.0
2018-Apr-10 21:30N 35°14' E 139°47'713.0
2018-Apr-10 21:00N 35°07' E 139°47'612.3
2018-Apr-10 20:30N 35°01' E 139°46'1 2.4
2018-Apr-10 20:00N 35°01' E 139°47'0 0.4
2018-Apr-10 19:30N 35°01' E 139°48'1 1.4
2018-Apr-10 19:00N 35°01' E 139°48'0 0.1
2018-Apr-10 18:30N 35°01' E 139°48'0 0.4
2018-Apr-10 17:59N 35°01' E 139°48'0 0.9
2018-Apr-10 17:30N 35°01' E 139°48'0 0.2
2018-Apr-10 17:00N 35°01' E 139°48'0 0.2
2018-Apr-10 16:30N 35°01' E 139°48'0 0.4
2018-Apr-10 16:00N 35°01' E 139°47'0 0.3
2018-Apr-10 15:30N 35°00' E 139°47'0 0.4
2018-Apr-10 15:00N 35°00' E 139°47'1 0.6
2018-Apr-10 14:03N 35°01' E 139°48'0 1.1
2018-Apr-10 14:00N 35°01' E 139°48'0 0.7
2018-Apr-10 13:30N 35°00' E 139°48'1 2.2
2018-Apr-10 13:00N 35°01' E 139°48'0 0.9
2018-Apr-10 12:30N 35°01' E 139°48'0 0.7
2018-Apr-10 12:00N 35°01' E 139°48'0 0.5
2018-Apr-10 11:30N 35°00' E 139°48'1 2.0
2018-Apr-10 11:00N 35°01' E 139°48'0 0.6
2018-Apr-10 10:30N 35°01' E 139°48'1 1.9
2018-Apr-10 10:00N 35°01' E 139°47'3 5.2
2018-Apr-10 09:29N 34°60' E 139°44'1010.2
2018-Apr-10 08:29N 34°50' E 139°41'814.5
2018-Apr-10 07:55N 34°42' E 139°41'  

Dump ship's entire track history